sensor_id;sensor_type;location;lat;lon;timestamp;P1;durP1;ratioP1;P2;durP2;ratioP2
37973;SDS011;23796;51.458;7.000;2023-05-23T00:02:07;8.02;;;5.03;;
37973;SDS011;23796;51.458;7.000;2023-05-23T00:04:37;5.40;;;4.55;;
37973;SDS011;23796;51.458;7.000;2023-05-23T00:07:03;6.95;;;4.28;;
37973;SDS011;23796;51.458;7.000;2023-05-23T00:09:31;6.00;;;4.10;;
37973;SDS011;23796;51.458;7.000;2023-05-23T00:11:56;5.57;;;3.85;;
37973;SDS011;23796;51.458;7.000;2023-05-23T00:14:24;5.57;;;3.67;;
37973;SDS011;23796;51.458;7.000;2023-05-23T00:16:57;4.00;;;3.13;;
37973;SDS011;23796;51.458;7.000;2023-05-23T00:19:23;4.60;;;3.72;;
37973;SDS011;23796;51.458;7.000;2023-05-23T00:21:49;5.03;;;3.60;;
37973;SDS011;23796;51.458;7.000;2023-05-23T00:24:17;7.40;;;3.55;;
37973;SDS011;23796;51.458;7.000;2023-05-23T00:26:44;4.93;;;3.40;;
37973;SDS011;23796;51.458;7.000;2023-05-23T00:29:10;4.90;;;3.75;;
37973;SDS011;23796;51.458;7.000;2023-05-23T00:31:40;4.95;;;3.10;;
37973;SDS011;23796;51.458;7.000;2023-05-23T00:34:10;4.10;;;3.08;;
37973;SDS011;23796;51.458;7.000;2023-05-23T00:36:37;4.28;;;3.20;;
37973;SDS011;23796;51.458;7.000;2023-05-23T00:39:03;4.65;;;3.20;;
37973;SDS011;23796;51.458;7.000;2023-05-23T00:41:29;5.57;;;3.35;;
37973;SDS011;23796;51.458;7.000;2023-05-23T00:43:56;5.00;;;3.35;;
37973;SDS011;23796;51.458;7.000;2023-05-23T00:46:23;3.55;;;2.80;;
37973;SDS011;23796;51.458;7.000;2023-05-23T00:48:50;4.15;;;3.20;;
37973;SDS011;23796;51.458;7.000;2023-05-23T00:51:16;4.72;;;3.33;;
37973;SDS011;23796;51.458;7.000;2023-05-23T00:53:44;4.65;;;3.05;;
37973;SDS011;23796;51.458;7.000;2023-05-23T00:56:12;6.22;;;3.20;;
37973;SDS011;23796;51.458;7.000;2023-05-23T00:58:38;5.93;;;3.33;;
37973;SDS011;23796;51.458;7.000;2023-05-23T01:01:04;4.15;;;3.13;;
37973;SDS011;23796;51.458;7.000;2023-05-23T01:03:30;5.05;;;3.60;;
37973;SDS011;23796;51.458;7.000;2023-05-23T01:05:59;5.55;;;3.70;;
37973;SDS011;23796;51.458;7.000;2023-05-23T01:08:27;4.75;;;3.25;;
37973;SDS011;23796;51.458;7.000;2023-05-23T01:10:59;4.32;;;3.55;;
37973;SDS011;23796;51.458;7.000;2023-05-23T01:16:09;4.50;;;3.08;;
37973;SDS011;23796;51.458;7.000;2023-05-23T01:18:57;4.53;;;2.97;;
37973;SDS011;23796;51.458;7.000;2023-05-23T01:21:32;6.55;;;3.30;;
37973;SDS011;23796;51.458;7.000;2023-05-23T01:27:02;5.40;;;3.10;;
37973;SDS011;23796;51.458;7.000;2023-05-23T01:29:56;5.90;;;3.50;;
37973;SDS011;23796;51.458;7.000;2023-05-23T01:32:24;4.85;;;3.40;;
37973;SDS011;23796;51.458;7.000;2023-05-23T01:34:55;6.05;;;3.30;;
37973;SDS011;23796;51.458;7.000;2023-05-23T01:37:23;4.53;;;2.88;;
37973;SDS011;23796;51.458;7.000;2023-05-23T01:39:49;4.35;;;2.83;;
37973;SDS011;23796;51.458;7.000;2023-05-23T01:42:14;4.95;;;3.13;;
37973;SDS011;23796;51.458;7.000;2023-05-23T01:44:40;4.57;;;2.95;;
37973;SDS011;23796;51.458;7.000;2023-05-23T01:47:08;5.70;;;3.08;;
37973;SDS011;23796;51.458;7.000;2023-05-23T01:49:37;4.70;;;3.28;;
37973;SDS011;23796;51.458;7.000;2023-05-23T01:52:04;4.95;;;3.25;;
37973;SDS011;23796;51.458;7.000;2023-05-23T01:54:33;5.53;;;3.05;;
37973;SDS011;23796;51.458;7.000;2023-05-23T01:57:05;6.53;;;3.22;;
37973;SDS011;23796;51.458;7.000;2023-05-23T01:59:36;5.78;;;3.90;;
37973;SDS011;23796;51.458;7.000;2023-05-23T02:02:02;5.15;;;3.30;;
37973;SDS011;23796;51.458;7.000;2023-05-23T02:04:28;5.78;;;4.40;;
37973;SDS011;23796;51.458;7.000;2023-05-23T02:06:55;4.95;;;3.80;;
37973;SDS011;23796;51.458;7.000;2023-05-23T02:09:22;6.70;;;3.90;;
37973;SDS011;23796;51.458;7.000;2023-05-23T02:11:48;5.53;;;4.07;;
37973;SDS011;23796;51.458;7.000;2023-05-23T02:14:13;7.50;;;4.15;;
37973;SDS011;23796;51.458;7.000;2023-05-23T02:16:39;6.60;;;3.92;;
37973;SDS011;23796;51.458;7.000;2023-05-23T02:19:05;7.10;;;4.57;;
37973;SDS011;23796;51.458;7.000;2023-05-23T02:21:33;5.97;;;3.72;;
37973;SDS011;23796;51.458;7.000;2023-05-23T02:23:58;7.13;;;5.00;;
37973;SDS011;23796;51.458;7.000;2023-05-23T02:26:26;5.35;;;4.25;;
37973;SDS011;23796;51.458;7.000;2023-05-23T02:28:52;8.40;;;4.68;;
37973;SDS011;23796;51.458;7.000;2023-05-23T02:31:20;6.35;;;4.30;;
37973;SDS011;23796;51.458;7.000;2023-05-23T02:33:45;6.15;;;4.15;;
37973;SDS011;23796;51.458;7.000;2023-05-23T02:36:13;7.13;;;4.85;;
37973;SDS011;23796;51.458;7.000;2023-05-23T02:38:39;8.90;;;4.78;;
37973;SDS011;23796;51.458;7.000;2023-05-23T02:41:04;9.00;;;4.40;;
37973;SDS011;23796;51.458;7.000;2023-05-23T02:43:30;6.57;;;4.65;;
37973;SDS011;23796;51.458;7.000;2023-05-23T02:45:58;8.23;;;4.53;;
37973;SDS011;23796;51.458;7.000;2023-05-23T02:48:24;7.70;;;4.50;;
37973;SDS011;23796;51.458;7.000;2023-05-23T02:50:49;7.70;;;4.80;;
37973;SDS011;23796;51.458;7.000;2023-05-23T02:53:15;7.25;;;4.20;;
37973;SDS011;23796;51.458;7.000;2023-05-23T02:55:42;7.13;;;3.88;;
37973;SDS011;23796;51.458;7.000;2023-05-23T02:58:13;6.03;;;3.53;;
37973;SDS011;23796;51.458;7.000;2023-05-23T03:00:38;7.80;;;3.80;;
37973;SDS011;23796;51.458;7.000;2023-05-23T03:03:09;7.35;;;4.28;;
37973;SDS011;23796;51.458;7.000;2023-05-23T03:05:35;11.77;;;4.55;;
37973;SDS011;23796;51.458;7.000;2023-05-23T03:08:01;8.20;;;3.85;;
37973;SDS011;23796;51.458;7.000;2023-05-23T03:10:29;6.65;;;3.72;;
37973;SDS011;23796;51.458;7.000;2023-05-23T03:12:57;6.70;;;3.33;;
37973;SDS011;23796;51.458;7.000;2023-05-23T03:15:22;5.47;;;3.67;;
37973;SDS011;23796;51.458;7.000;2023-05-23T03:17:48;6.38;;;3.38;;
37973;SDS011;23796;51.458;7.000;2023-05-23T03:20:14;7.93;;;3.67;;
37973;SDS011;23796;51.458;7.000;2023-05-23T03:22:39;5.80;;;3.63;;
37973;SDS011;23796;51.458;7.000;2023-05-23T03:25:09;7.88;;;4.13;;
37973;SDS011;23796;51.458;7.000;2023-05-23T03:27:38;5.72;;;3.53;;
37973;SDS011;23796;51.458;7.000;2023-05-23T03:30:06;7.53;;;3.63;;
37973;SDS011;23796;51.458;7.000;2023-05-23T03:32:32;6.38;;;3.35;;
37973;SDS011;23796;51.458;7.000;2023-05-23T03:34:59;7.63;;;4.10;;
37973;SDS011;23796;51.458;7.000;2023-05-23T03:37:25;7.13;;;4.20;;
37973;SDS011;23796;51.458;7.000;2023-05-23T03:39:51;7.22;;;3.53;;
37973;SDS011;23796;51.458;7.000;2023-05-23T03:42:16;6.25;;;3.65;;
37973;SDS011;23796;51.458;7.000;2023-05-23T03:44:42;6.97;;;4.25;;
37973;SDS011;23796;51.458;7.000;2023-05-23T03:47:08;8.52;;;3.70;;
37973;SDS011;23796;51.458;7.000;2023-05-23T03:49:34;7.72;;;4.40;;
37973;SDS011;23796;51.458;7.000;2023-05-23T03:51:59;7.18;;;4.47;;
37973;SDS011;23796;51.458;7.000;2023-05-23T03:54:25;5.50;;;3.75;;
37973;SDS011;23796;51.458;7.000;2023-05-23T03:56:50;8.45;;;5.43;;
37973;SDS011;23796;51.458;7.000;2023-05-23T03:59:16;8.88;;;5.05;;
37973;SDS011;23796;51.458;7.000;2023-05-23T04:01:42;7.93;;;4.97;;
37973;SDS011;23796;51.458;7.000;2023-05-23T04:04:08;8.55;;;4.95;;
37973;SDS011;23796;51.458;7.000;2023-05-23T04:06:33;10.38;;;4.68;;
37973;SDS011;23796;51.458;7.000;2023-05-23T04:09:02;7.85;;;4.90;;
37973;SDS011;23796;51.458;7.000;2023-05-23T04:11:32;9.23;;;5.22;;
37973;SDS011;23796;51.458;7.000;2023-05-23T04:13:58;9.00;;;5.55;;
37973;SDS011;23796;51.458;7.000;2023-05-23T04:16:26;8.80;;;5.35;;
37973;SDS011;23796;51.458;7.000;2023-05-23T04:18:52;9.85;;;5.53;;
37973;SDS011;23796;51.458;7.000;2023-05-23T04:21:18;10.02;;;5.38;;
37973;SDS011;23796;51.458;7.000;2023-05-23T04:23:44;11.45;;;5.47;;
37973;SDS011;23796;51.458;7.000;2023-05-23T04:26:12;10.00;;;6.00;;
37973;SDS011;23796;51.458;7.000;2023-05-23T04:28:39;9.13;;;4.93;;
37973;SDS011;23796;51.458;7.000;2023-05-23T04:31:07;10.88;;;5.57;;
37973;SDS011;23796;51.458;7.000;2023-05-23T04:33:38;9.90;;;5.53;;
37973;SDS011;23796;51.458;7.000;2023-05-23T04:36:03;9.95;;;5.72;;
37973;SDS011;23796;51.458;7.000;2023-05-23T04:38:33;9.32;;;5.03;;
37973;SDS011;23796;51.458;7.000;2023-05-23T04:41:03;9.80;;;5.40;;
37973;SDS011;23796;51.458;7.000;2023-05-23T04:43:36;9.23;;;5.13;;
37973;SDS011;23796;51.458;7.000;2023-05-23T04:46:07;9.90;;;6.22;;
37973;SDS011;23796;51.458;7.000;2023-05-23T04:48:34;11.13;;;6.07;;
37973;SDS011;23796;51.458;7.000;2023-05-23T04:51:03;11.07;;;6.40;;
37973;SDS011;23796;51.458;7.000;2023-05-23T04:53:35;8.80;;;5.88;;
37973;SDS011;23796;51.458;7.000;2023-05-23T04:56:05;9.20;;;5.38;;
37973;SDS011;23796;51.458;7.000;2023-05-23T04:58:32;8.27;;;5.28;;
37973;SDS011;23796;51.458;7.000;2023-05-23T05:00:58;8.40;;;5.40;;
37973;SDS011;23796;51.458;7.000;2023-05-23T05:03:26;9.57;;;5.25;;
37973;SDS011;23796;51.458;7.000;2023-05-23T05:05:51;10.88;;;5.93;;
37973;SDS011;23796;51.458;7.000;2023-05-23T05:08:17;8.10;;;5.68;;
37973;SDS011;23796;51.458;7.000;2023-05-23T05:10:46;10.70;;;6.03;;
37973;SDS011;23796;51.458;7.000;2023-05-23T05:13:12;9.00;;;6.22;;
37973;SDS011;23796;51.458;7.000;2023-05-23T05:15:39;8.65;;;5.75;;
37973;SDS011;23796;51.458;7.000;2023-05-23T05:18:05;8.45;;;5.63;;
37973;SDS011;23796;51.458;7.000;2023-05-23T05:20:31;7.25;;;5.40;;
37973;SDS011;23796;51.458;7.000;2023-05-23T05:22:56;8.07;;;5.90;;
37973;SDS011;23796;51.458;7.000;2023-05-23T05:25:22;9.63;;;6.05;;
37973;SDS011;23796;51.458;7.000;2023-05-23T05:27:48;11.80;;;6.60;;
37973;SDS011;23796;51.458;7.000;2023-05-23T05:30:14;12.20;;;6.75;;
37973;SDS011;23796;51.458;7.000;2023-05-23T05:32:45;8.82;;;6.50;;
37973;SDS011;23796;51.458;7.000;2023-05-23T05:35:11;11.68;;;8.23;;
37973;SDS011;23796;51.458;7.000;2023-05-23T05:37:40;12.57;;;8.55;;
37973;SDS011;23796;51.458;7.000;2023-05-23T05:40:06;9.90;;;7.10;;
37973;SDS011;23796;51.458;7.000;2023-05-23T05:42:34;13.20;;;7.57;;
37973;SDS011;23796;51.458;7.000;2023-05-23T05:45:00;9.55;;;6.47;;
37973;SDS011;23796;51.458;7.000;2023-05-23T05:47:26;11.73;;;7.25;;
37973;SDS011;23796;51.458;7.000;2023-05-23T05:49:51;10.48;;;6.97;;
37973;SDS011;23796;51.458;7.000;2023-05-23T05:52:17;10.48;;;6.85;;
37973;SDS011;23796;51.458;7.000;2023-05-23T05:54:42;9.25;;;6.65;;
37973;SDS011;23796;51.458;7.000;2023-05-23T05:57:08;12.10;;;6.45;;
37973;SDS011;23796;51.458;7.000;2023-05-23T05:59:36;9.07;;;6.13;;
37973;SDS011;23796;51.458;7.000;2023-05-23T06:02:01;8.93;;;6.20;;
37973;SDS011;23796;51.458;7.000;2023-05-23T06:04:27;9.25;;;6.63;;
37973;SDS011;23796;51.458;7.000;2023-05-23T06:06:55;12.00;;;7.18;;
37973;SDS011;23796;51.458;7.000;2023-05-23T06:09:20;11.18;;;7.18;;
37973;SDS011;23796;51.458;7.000;2023-05-23T06:11:46;11.45;;;6.05;;
37973;SDS011;23796;51.458;7.000;2023-05-23T06:14:14;10.65;;;6.53;;
37973;SDS011;23796;51.458;7.000;2023-05-23T06:16:42;10.90;;;5.50;;
37973;SDS011;23796;51.458;7.000;2023-05-23T06:19:12;9.98;;;6.00;;
37973;SDS011;23796;51.458;7.000;2023-05-23T06:21:40;10.85;;;5.93;;
37973;SDS011;23796;51.458;7.000;2023-05-23T06:24:08;10.48;;;5.45;;
37973;SDS011;23796;51.458;7.000;2023-05-23T06:26:34;13.48;;;6.07;;
37973;SDS011;23796;51.458;7.000;2023-05-23T06:29:01;8.18;;;5.28;;
37973;SDS011;23796;51.458;7.000;2023-05-23T06:31:29;8.18;;;5.70;;
37973;SDS011;23796;51.458;7.000;2023-05-23T06:33:55;9.15;;;5.82;;
37973;SDS011;23796;51.458;7.000;2023-05-23T06:36:21;10.30;;;5.30;;
37973;SDS011;23796;51.458;7.000;2023-05-23T06:38:48;11.32;;;5.00;;
37973;SDS011;23796;51.458;7.000;2023-05-23T06:41:16;7.95;;;5.20;;
37973;SDS011;23796;51.458;7.000;2023-05-23T06:43:42;8.27;;;4.53;;
37973;SDS011;23796;51.458;7.000;2023-05-23T06:46:10;6.65;;;4.95;;
37973;SDS011;23796;51.458;7.000;2023-05-23T06:48:38;9.15;;;5.72;;
37973;SDS011;23796;51.458;7.000;2023-05-23T06:51:04;8.57;;;4.72;;
37973;SDS011;23796;51.458;7.000;2023-05-23T06:53:32;7.57;;;4.72;;
37973;SDS011;23796;51.458;7.000;2023-05-23T06:55:57;8.77;;;5.22;;
37973;SDS011;23796;51.458;7.000;2023-05-23T06:58:25;9.02;;;5.78;;
37973;SDS011;23796;51.458;7.000;2023-05-23T07:00:51;14.43;;;5.40;;
37973;SDS011;23796;51.458;7.000;2023-05-23T07:03:16;8.32;;;5.15;;
37973;SDS011;23796;51.458;7.000;2023-05-23T07:05:44;7.47;;;4.82;;
37973;SDS011;23796;51.458;7.000;2023-05-23T07:08:10;8.00;;;5.55;;
37973;SDS011;23796;51.458;7.000;2023-05-23T07:10:36;7.88;;;5.30;;
37973;SDS011;23796;51.458;7.000;2023-05-23T07:13:03;10.25;;;5.43;;
37973;SDS011;23796;51.458;7.000;2023-05-23T07:15:28;9.38;;;5.53;;
37973;SDS011;23796;51.458;7.000;2023-05-23T07:17:54;9.95;;;5.45;;
37973;SDS011;23796;51.458;7.000;2023-05-23T07:20:19;8.73;;;5.40;;
37973;SDS011;23796;51.458;7.000;2023-05-23T07:22:45;16.33;;;6.03;;
37973;SDS011;23796;51.458;7.000;2023-05-23T07:25:11;11.90;;;5.97;;
37973;SDS011;23796;51.458;7.000;2023-05-23T07:27:36;9.85;;;5.85;;
37973;SDS011;23796;51.458;7.000;2023-05-23T07:30:05;11.45;;;5.72;;
37973;SDS011;23796;51.458;7.000;2023-05-23T07:32:33;12.40;;;6.38;;
37973;SDS011;23796;51.458;7.000;2023-05-23T07:34:59;13.90;;;6.13;;
37973;SDS011;23796;51.458;7.000;2023-05-23T07:37:29;13.02;;;6.07;;
37973;SDS011;23796;51.458;7.000;2023-05-23T07:39:57;13.50;;;6.47;;
37973;SDS011;23796;51.458;7.000;2023-05-23T07:42:22;8.85;;;5.50;;
37973;SDS011;23796;51.458;7.000;2023-05-23T07:44:48;9.80;;;5.30;;
37973;SDS011;23796;51.458;7.000;2023-05-23T07:47:13;10.68;;;5.68;;
37973;SDS011;23796;51.458;7.000;2023-05-23T07:49:39;8.77;;;5.32;;
37973;SDS011;23796;51.458;7.000;2023-05-23T07:52:08;10.57;;;5.45;;
37973;SDS011;23796;51.458;7.000;2023-05-23T07:54:34;11.43;;;6.00;;
37973;SDS011;23796;51.458;7.000;2023-05-23T07:57:04;13.82;;;7.07;;
37973;SDS011;23796;51.458;7.000;2023-05-23T07:59:31;12.75;;;5.68;;
37973;SDS011;23796;51.458;7.000;2023-05-23T08:02:01;10.63;;;5.57;;
37973;SDS011;23796;51.458;7.000;2023-05-23T08:04:29;13.15;;;5.68;;
37973;SDS011;23796;51.458;7.000;2023-05-23T08:07:00;9.73;;;5.78;;
37973;SDS011;23796;51.458;7.000;2023-05-23T08:09:32;10.00;;;5.70;;
37973;SDS011;23796;51.458;7.000;2023-05-23T08:11:57;10.02;;;5.22;;
37973;SDS011;23796;51.458;7.000;2023-05-23T08:14:23;10.93;;;5.70;;
37973;SDS011;23796;51.458;7.000;2023-05-23T08:16:49;11.75;;;5.82;;
37973;SDS011;23796;51.458;7.000;2023-05-23T08:19:14;12.02;;;5.72;;
37973;SDS011;23796;51.458;7.000;2023-05-23T08:21:40;11.18;;;5.60;;
37973;SDS011;23796;51.458;7.000;2023-05-23T08:24:08;12.32;;;5.57;;
37973;SDS011;23796;51.458;7.000;2023-05-23T08:26:39;12.77;;;5.10;;
37973;SDS011;23796;51.458;7.000;2023-05-23T08:29:06;15.77;;;6.57;;
37973;SDS011;23796;51.458;7.000;2023-05-23T08:31:36;10.02;;;5.55;;
37973;SDS011;23796;51.458;7.000;2023-05-23T08:34:02;12.80;;;6.03;;
37973;SDS011;23796;51.458;7.000;2023-05-23T08:36:28;12.65;;;6.55;;
37973;SDS011;23796;51.458;7.000;2023-05-23T08:38:54;10.93;;;5.55;;
37973;SDS011;23796;51.458;7.000;2023-05-23T08:41:21;11.43;;;6.32;;
37973;SDS011;23796;51.458;7.000;2023-05-23T08:43:47;13.43;;;5.60;;
37973;SDS011;23796;51.458;7.000;2023-05-23T08:46:13;11.57;;;5.30;;
37973;SDS011;23796;51.458;7.000;2023-05-23T08:48:40;9.95;;;4.95;;
37973;SDS011;23796;51.458;7.000;2023-05-23T08:51:11;13.23;;;6.00;;
37973;SDS011;23796;51.458;7.000;2023-05-23T08:53:39;12.55;;;6.03;;
37973;SDS011;23796;51.458;7.000;2023-05-23T08:56:08;12.25;;;5.07;;
37973;SDS011;23796;51.458;7.000;2023-05-23T08:58:34;12.23;;;6.32;;
37973;SDS011;23796;51.458;7.000;2023-05-23T09:01:00;12.13;;;5.60;;
37973;SDS011;23796;51.458;7.000;2023-05-23T09:03:26;15.40;;;5.68;;
37973;SDS011;23796;51.458;7.000;2023-05-23T09:05:55;10.43;;;5.68;;
37973;SDS011;23796;51.458;7.000;2023-05-23T09:08:21;14.05;;;6.97;;
37973;SDS011;23796;51.458;7.000;2023-05-23T09:10:48;14.35;;;6.57;;
37973;SDS011;23796;51.458;7.000;2023-05-23T09:13:17;13.77;;;6.47;;
37973;SDS011;23796;51.458;7.000;2023-05-23T09:18:25;14.23;;;5.70;;
37973;SDS011;23796;51.458;7.000;2023-05-23T09:20:51;12.02;;;5.35;;
37973;SDS011;23796;51.458;7.000;2023-05-23T09:23:17;14.93;;;6.65;;
37973;SDS011;23796;51.458;7.000;2023-05-23T09:25:45;17.13;;;5.90;;
37973;SDS011;23796;51.458;7.000;2023-05-23T09:28:11;11.75;;;5.60;;
37973;SDS011;23796;51.458;7.000;2023-05-23T09:30:37;11.60;;;5.53;;
37973;SDS011;23796;51.458;7.000;2023-05-23T09:33:03;7.70;;;4.57;;
37973;SDS011;23796;51.458;7.000;2023-05-23T09:35:29;10.50;;;4.43;;
37973;SDS011;23796;51.458;7.000;2023-05-23T09:37:56;9.20;;;4.50;;
37973;SDS011;23796;51.458;7.000;2023-05-23T09:40:31;8.27;;;4.18;;
37973;SDS011;23796;51.458;7.000;2023-05-23T09:43:00;12.02;;;4.45;;
37973;SDS011;23796;51.458;7.000;2023-05-23T09:45:31;12.00;;;4.60;;
37973;SDS011;23796;51.458;7.000;2023-05-23T09:47:57;10.80;;;4.45;;
37973;SDS011;23796;51.458;7.000;2023-05-23T09:50:29;11.73;;;4.88;;
37973;SDS011;23796;51.458;7.000;2023-05-23T09:52:59;14.05;;;5.60;;
37973;SDS011;23796;51.458;7.000;2023-05-23T09:55:25;11.13;;;4.82;;
37973;SDS011;23796;51.458;7.000;2023-05-23T09:57:52;12.82;;;5.82;;
37973;SDS011;23796;51.458;7.000;2023-05-23T10:00:23;12.32;;;5.65;;
37973;SDS011;23796;51.458;7.000;2023-05-23T10:03:11;13.57;;;6.22;;
37973;SDS011;23796;51.458;7.000;2023-05-23T10:08:58;13.48;;;6.13;;
37973;SDS011;23796;51.458;7.000;2023-05-23T10:13:44;9.82;;;5.47;;
37973;SDS011;23796;51.458;7.000;2023-05-23T10:18:43;13.55;;;6.70;;
37973;SDS011;23796;51.458;7.000;2023-05-23T10:21:14;12.07;;;6.03;;
37973;SDS011;23796;51.458;7.000;2023-05-23T10:23:48;13.95;;;6.30;;
37973;SDS011;23796;51.458;7.000;2023-05-23T10:26:15;11.27;;;5.80;;
37973;SDS011;23796;51.458;7.000;2023-05-23T10:28:44;14.13;;;5.53;;
37973;SDS011;23796;51.458;7.000;2023-05-23T10:31:11;10.93;;;5.68;;
37973;SDS011;23796;51.458;7.000;2023-05-23T10:33:39;9.45;;;4.97;;
37973;SDS011;23796;51.458;7.000;2023-05-23T10:36:21;13.27;;;5.75;;
37973;SDS011;23796;51.458;7.000;2023-05-23T10:41:33;12.13;;;4.88;;
37973;SDS011;23796;51.458;7.000;2023-05-23T10:46:54;8.90;;;4.63;;
37973;SDS011;23796;51.458;7.000;2023-05-23T10:49:38;7.13;;;3.90;;
37973;SDS011;23796;51.458;7.000;2023-05-23T10:52:17;8.95;;;4.40;;
37973;SDS011;23796;51.458;7.000;2023-05-23T10:54:50;9.13;;;4.53;;
37973;SDS011;23796;51.458;7.000;2023-05-23T10:57:24;11.30;;;4.38;;
37973;SDS011;23796;51.458;7.000;2023-05-23T10:59:52;9.65;;;4.30;;
37973;SDS011;23796;51.458;7.000;2023-05-23T11:02:23;8.95;;;4.15;;
37973;SDS011;23796;51.458;7.000;2023-05-23T11:07:39;9.70;;;4.53;;
37973;SDS011;23796;51.458;7.000;2023-05-23T11:10:09;8.20;;;4.07;;
37973;SDS011;23796;51.458;7.000;2023-05-23T11:12:36;10.95;;;4.50;;
37973;SDS011;23796;51.458;7.000;2023-05-23T11:17:56;10.05;;;4.45;;
37973;SDS011;23796;51.458;7.000;2023-05-23T11:20:25;10.65;;;4.30;;
37973;SDS011;23796;51.458;7.000;2023-05-23T11:23:00;9.23;;;5.07;;
37973;SDS011;23796;51.458;7.000;2023-05-23T11:28:14;8.35;;;3.95;;
37973;SDS011;23796;51.458;7.000;2023-05-23T11:30:41;6.93;;;3.75;;
37973;SDS011;23796;51.458;7.000;2023-05-23T11:33:10;9.20;;;4.60;;
37973;SDS011;23796;51.458;7.000;2023-05-23T11:35:49;10.10;;;3.85;;
37973;SDS011;23796;51.458;7.000;2023-05-23T11:38:20;6.53;;;3.45;;
37973;SDS011;23796;51.458;7.000;2023-05-23T11:40:46;7.78;;;3.25;;
37973;SDS011;23796;51.458;7.000;2023-05-23T11:43:15;9.00;;;3.35;;
37973;SDS011;23796;51.458;7.000;2023-05-23T11:45:41;9.10;;;3.70;;
37973;SDS011;23796;51.458;7.000;2023-05-23T11:50:44;10.40;;;3.42;;
37973;SDS011;23796;51.458;7.000;2023-05-23T11:53:20;10.50;;;3.22;;
37973;SDS011;23796;51.458;7.000;2023-05-23T11:55:52;10.40;;;3.22;;
37973;SDS011;23796;51.458;7.000;2023-05-23T11:58:20;9.07;;;2.90;;
37973;SDS011;23796;51.458;7.000;2023-05-23T12:00:46;7.82;;;2.92;;
37973;SDS011;23796;51.458;7.000;2023-05-23T12:03:12;6.85;;;2.80;;
37973;SDS011;23796;51.458;7.000;2023-05-23T12:05:38;7.93;;;2.90;;
37973;SDS011;23796;51.458;7.000;2023-05-23T12:08:05;7.22;;;3.13;;
37973;SDS011;23796;51.458;7.000;2023-05-23T12:10:34;7.20;;;3.08;;
37973;SDS011;23796;51.458;7.000;2023-05-23T12:13:14;9.77;;;3.30;;
37973;SDS011;23796;51.458;7.000;2023-05-23T12:15:40;8.38;;;2.65;;
37973;SDS011;23796;51.458;7.000;2023-05-23T12:18:06;7.35;;;3.08;;
37973;SDS011;23796;51.458;7.000;2023-05-23T12:20:31;11.20;;;3.40;;
37973;SDS011;23796;51.458;7.000;2023-05-23T12:23:02;9.90;;;2.65;;
37973;SDS011;23796;51.458;7.000;2023-05-23T12:25:28;8.20;;;2.60;;
37973;SDS011;23796;51.458;7.000;2023-05-23T12:28:01;7.88;;;2.67;;
37973;SDS011;23796;51.458;7.000;2023-05-23T12:30:27;8.75;;;2.85;;
37973;SDS011;23796;51.458;7.000;2023-05-23T12:32:53;7.03;;;3.00;;
37973;SDS011;23796;51.458;7.000;2023-05-23T12:35:23;7.22;;;2.70;;
37973;SDS011;23796;51.458;7.000;2023-05-23T12:37:52;9.13;;;3.17;;
37973;SDS011;23796;51.458;7.000;2023-05-23T12:40:23;11.55;;;3.53;;
37973;SDS011;23796;51.458;7.000;2023-05-23T12:42:52;8.80;;;3.03;;
37973;SDS011;23796;51.458;7.000;2023-05-23T12:45:23;15.32;;;3.80;;
37973;SDS011;23796;51.458;7.000;2023-05-23T12:47:58;9.20;;;3.17;;
37973;SDS011;23796;51.458;7.000;2023-05-23T12:50:24;7.22;;;2.72;;
37973;SDS011;23796;51.458;7.000;2023-05-23T12:52:49;9.38;;;3.15;;
37973;SDS011;23796;51.458;7.000;2023-05-23T12:55:16;8.77;;;2.65;;
37973;SDS011;23796;51.458;7.000;2023-05-23T12:57:41;11.48;;;3.28;;
37973;SDS011;23796;51.458;7.000;2023-05-23T13:00:08;9.30;;;2.92;;
37973;SDS011;23796;51.458;7.000;2023-05-23T13:02:34;9.32;;;3.53;;
37973;SDS011;23796;51.458;7.000;2023-05-23T13:05:03;11.05;;;3.00;;
37973;SDS011;23796;51.458;7.000;2023-05-23T13:07:32;9.38;;;3.28;;
37973;SDS011;23796;51.458;7.000;2023-05-23T13:10:00;9.75;;;4.32;;
37973;SDS011;23796;51.458;7.000;2023-05-23T13:12:26;9.00;;;3.58;;
37973;SDS011;23796;51.458;7.000;2023-05-23T13:14:52;10.73;;;3.10;;
37973;SDS011;23796;51.458;7.000;2023-05-23T13:17:21;11.27;;;3.75;;
37973;SDS011;23796;51.458;7.000;2023-05-23T13:19:47;11.02;;;2.95;;
37973;SDS011;23796;51.458;7.000;2023-05-23T13:22:12;9.27;;;3.00;;
37973;SDS011;23796;51.458;7.000;2023-05-23T13:24:43;10.25;;;3.70;;
37973;SDS011;23796;51.458;7.000;2023-05-23T13:27:10;10.35;;;2.95;;
37973;SDS011;23796;51.458;7.000;2023-05-23T13:29:38;12.75;;;3.15;;
37973;SDS011;23796;51.458;7.000;2023-05-23T13:32:04;6.55;;;2.90;;
37973;SDS011;23796;51.458;7.000;2023-05-23T13:34:29;8.75;;;2.85;;
37973;SDS011;23796;51.458;7.000;2023-05-23T13:36:55;7.75;;;2.97;;
37973;SDS011;23796;51.458;7.000;2023-05-23T13:39:23;10.88;;;3.13;;
37973;SDS011;23796;51.458;7.000;2023-05-23T13:41:49;9.77;;;2.88;;
37973;SDS011;23796;51.458;7.000;2023-05-23T13:44:14;8.45;;;3.30;;
37973;SDS011;23796;51.458;7.000;2023-05-23T13:46:41;10.52;;;3.50;;
37973;SDS011;23796;51.458;7.000;2023-05-23T13:49:07;9.82;;;3.08;;
37973;SDS011;23796;51.458;7.000;2023-05-23T13:51:37;8.30;;;3.20;;
37973;SDS011;23796;51.458;7.000;2023-05-23T13:54:03;7.95;;;3.55;;
37973;SDS011;23796;51.458;7.000;2023-05-23T13:56:30;10.63;;;2.92;;
37973;SDS011;23796;51.458;7.000;2023-05-23T13:58:56;8.63;;;2.53;;
37973;SDS011;23796;51.458;7.000;2023-05-23T14:01:21;9.52;;;2.47;;
37973;SDS011;23796;51.458;7.000;2023-05-23T14:03:48;9.35;;;3.20;;
37973;SDS011;23796;51.458;7.000;2023-05-23T14:06:13;10.45;;;2.85;;
37973;SDS011;23796;51.458;7.000;2023-05-23T14:08:39;7.38;;;3.03;;
37973;SDS011;23796;51.458;7.000;2023-05-23T14:11:06;6.68;;;2.75;;
37973;SDS011;23796;51.458;7.000;2023-05-23T14:13:34;7.95;;;2.83;;
37973;SDS011;23796;51.458;7.000;2023-05-23T14:16:02;9.82;;;2.42;;
37973;SDS011;23796;51.458;7.000;2023-05-23T14:18:28;10.63;;;3.05;;
37973;SDS011;23796;51.458;7.000;2023-05-23T14:20:54;9.45;;;2.75;;
37973;SDS011;23796;51.458;7.000;2023-05-23T14:23:22;8.38;;;2.97;;
37973;SDS011;23796;51.458;7.000;2023-05-23T14:25:47;8.07;;;3.13;;
37973;SDS011;23796;51.458;7.000;2023-05-23T14:28:13;10.90;;;3.08;;
37973;SDS011;23796;51.458;7.000;2023-05-23T14:30:41;7.05;;;2.65;;
37973;SDS011;23796;51.458;7.000;2023-05-23T14:33:09;8.95;;;2.85;;
37973;SDS011;23796;51.458;7.000;2023-05-23T14:35:35;9.63;;;2.75;;
37973;SDS011;23796;51.458;7.000;2023-05-23T14:38:00;10.00;;;3.03;;
37973;SDS011;23796;51.458;7.000;2023-05-23T14:40:26;13.18;;;2.60;;
37973;SDS011;23796;51.458;7.000;2023-05-23T14:42:54;8.43;;;2.92;;
37973;SDS011;23796;51.458;7.000;2023-05-23T14:45:19;8.38;;;3.10;;
37973;SDS011;23796;51.458;7.000;2023-05-23T14:47:47;7.10;;;2.92;;
37973;SDS011;23796;51.458;7.000;2023-05-23T14:50:13;13.65;;;3.55;;
37973;SDS011;23796;51.458;7.000;2023-05-23T14:52:38;7.25;;;2.53;;
37973;SDS011;23796;51.458;7.000;2023-05-23T14:55:06;8.68;;;2.97;;
37973;SDS011;23796;51.458;7.000;2023-05-23T14:57:35;8.35;;;2.50;;
37973;SDS011;23796;51.458;7.000;2023-05-23T15:00:01;7.40;;;2.58;;
37973;SDS011;23796;51.458;7.000;2023-05-23T15:02:29;8.93;;;3.42;;
37973;SDS011;23796;51.458;7.000;2023-05-23T15:04:58;7.78;;;2.97;;
37973;SDS011;23796;51.458;7.000;2023-05-23T15:07:24;9.60;;;2.65;;
37973;SDS011;23796;51.458;7.000;2023-05-23T15:09:50;11.30;;;2.80;;
37973;SDS011;23796;51.458;7.000;2023-05-23T15:12:18;9.85;;;3.03;;
37973;SDS011;23796;51.458;7.000;2023-05-23T15:14:46;8.82;;;2.90;;
37973;SDS011;23796;51.458;7.000;2023-05-23T15:17:14;8.68;;;2.83;;
37973;SDS011;23796;51.458;7.000;2023-05-23T15:22:10;9.48;;;2.90;;